AFL3408 URKK-URSS
Flight info
| Callsign | AFL3408 |
|---|---|
| Flight time | 0h 38m |
| Altitude | 16000 |
| Route | DV B549 AG |
| Aircraft | A359/H-SDE2E3GHIJ3J4J5LM1ORWXY/LB1D1 |
Departure
| Time | 2026-05-07 16:58 |
|---|---|
| Airport | Krasnodar Pashkovsky International Airport (URKK) |
Arrival
| Time | 2026-05-07 17:36 |
|---|---|
| Airport | Sochi International Airport (URSS) |
| Time | Latitude | Longitude | Altitude | Speed | Heading |
|---|---|---|---|---|---|
| 2026-05-07 16:22 | 45.03792 | 39.14921 | 118 ft | 0 kts | 330° |
| 2026-05-07 16:45 | 45.03787 | 39.14925 | 118 ft | 2 kts | 330° |
| 2026-05-07 16:45 | 45.03774 | 39.14936 | 118 ft | 2 kts | 334° |
| 2026-05-07 16:46 | 45.03759 | 39.14942 | 118 ft | 2 kts | 359° |
| 2026-05-07 16:46 | 45.03744 | 39.14939 | 118 ft | 2 kts | 18° |
| 2026-05-07 16:46 | 45.03731 | 39.14930 | 118 ft | 2 kts | 38° |
| 2026-05-07 16:46 | 45.03721 | 39.14916 | 119 ft | 1 kts | 57° |
| 2026-05-07 16:47 | 45.03718 | 39.14909 | 119 ft | 0 kts | 60° |
| 2026-05-07 16:51 | 45.03723 | 39.14923 | 118 ft | 4 kts | 60° |
| 2026-05-07 16:51 | 45.03746 | 39.14981 | 116 ft | 9 kts | 60° |
| 2026-05-07 16:51 | 45.03788 | 39.15087 | 112 ft | 15 kts | 60° |
| 2026-05-07 16:51 | 45.03831 | 39.15239 | 110 ft | 17 kts | 84° |
| 2026-05-07 16:52 | 45.03805 | 39.15389 | 109 ft | 17 kts | 109° |
| 2026-05-07 16:52 | 45.03756 | 39.15545 | 109 ft | 18 kts | 111° |
| 2026-05-07 16:52 | 45.03739 | 39.15719 | 109 ft | 18 kts | 88° |
| 2026-05-07 16:52 | 45.03742 | 39.15910 | 109 ft | 20 kts | 89° |
| 2026-05-07 16:53 | 45.03722 | 39.16104 | 108 ft | 20 kts | 128° |
| 2026-05-07 16:53 | 45.03608 | 39.16242 | 108 ft | 22 kts | 142° |
| 2026-05-07 16:53 | 45.03482 | 39.16378 | 108 ft | 23 kts | 142° |
| 2026-05-07 16:53 | 45.03349 | 39.16523 | 107 ft | 25 kts | 142° |
| 2026-05-07 16:54 | 45.03207 | 39.16679 | 107 ft | 26 kts | 142° |
| 2026-05-07 16:54 | 45.03059 | 39.16840 | 106 ft | 27 kts | 142° |
| 2026-05-07 16:54 | 45.02906 | 39.17003 | 108 ft | 27 kts | 142° |
| 2026-05-07 16:54 | 45.02773 | 39.17151 | 109 ft | 14 kts | 142° |
| 2026-05-07 16:55 | 45.02737 | 39.17189 | 109 ft | 0 kts | 142° |
| 2026-05-07 16:56 | 45.02737 | 39.17190 | 109 ft | 0 kts | 142° |
| 2026-05-07 16:56 | 45.02722 | 39.17205 | 110 ft | 4 kts | 142° |
| 2026-05-07 16:56 | 45.02654 | 39.17299 | 112 ft | 11 kts | 113° |
| 2026-05-07 16:57 | 45.02748 | 39.17566 | 112 ft | 59 kts | 47° |
| 2026-05-07 16:57 | 45.03163 | 39.18318 | 116 ft | 132 kts | 52° |
| 2026-05-07 16:57 | 45.03805 | 39.19548 | 339 ft | 170 kts | 50° |
| 2026-05-07 16:57 | 45.04602 | 39.21003 | 712 ft | 202 kts | 50° |
| 2026-05-07 16:58 | 45.05544 | 39.22717 | 915 ft | 244 kts | 50° |
| 2026-05-07 16:58 | 45.06653 | 39.24755 | 1102 ft | 267 kts | 51° |
| 2026-05-07 16:58 | 45.07740 | 39.26778 | 1295 ft | 245 kts | 51° |
| 2026-05-07 16:58 | 45.08717 | 39.28603 | 1484 ft | 224 kts | 52° |
| 2026-05-07 16:59 | 45.09319 | 39.30600 | 1679 ft | 225 kts | 83° |
| 2026-05-07 16:59 | 45.09037 | 39.32785 | 1902 ft | 232 kts | 119° |
| 2026-05-07 16:59 | 45.07935 | 39.34438 | 2546 ft | 238 kts | 143° |
| 2026-05-07 16:59 | 45.06619 | 39.35807 | 3548 ft | 236 kts | 144° |
| 2026-05-07 17:00 | 45.05300 | 39.37163 | 4450 ft | 238 kts | 144° |
| 2026-05-07 17:00 | 45.03969 | 39.38552 | 5334 ft | 241 kts | 144° |
| 2026-05-07 17:00 | 45.02552 | 39.39766 | 6194 ft | 242 kts | 165° |
| 2026-05-07 17:00 | 45.00929 | 39.39870 | 7055 ft | 238 kts | 197° |
| 2026-05-07 17:01 | 44.99506 | 39.38777 | 7770 ft | 242 kts | 227° |
| 2026-05-07 17:01 | 44.98445 | 39.36888 | 8583 ft | 247 kts | 234° |
| 2026-05-07 17:01 | 44.97446 | 39.34958 | 9412 ft | 250 kts | 233° |
| 2026-05-07 17:01 | 44.96407 | 39.32973 | 10245 ft | 253 kts | 232° |
| 2026-05-07 17:02 | 44.95353 | 39.30989 | 11050 ft | 256 kts | 232° |
| 2026-05-07 17:02 | 44.94282 | 39.28999 | 11830 ft | 260 kts | 231° |
| 2026-05-07 17:02 | 44.93181 | 39.26965 | 12613 ft | 263 kts | 231° |
| 2026-05-07 17:02 | 44.92080 | 39.24936 | 13412 ft | 265 kts | 231° |
| 2026-05-07 17:03 | 44.90957 | 39.22867 | 14220 ft | 266 kts | 231° |
| 2026-05-07 17:03 | 44.89856 | 39.20796 | 14795 ft | 270 kts | 235° |
| 2026-05-07 17:03 | 44.88967 | 39.18345 | 15113 ft | 292 kts | 248° |
| 2026-05-07 17:03 | 44.88488 | 39.15451 | 15154 ft | 311 kts | 262° |
| 2026-05-07 17:04 | 44.88538 | 39.12387 | 15167 ft | 317 kts | 274° |
| 2026-05-07 17:04 | 44.88762 | 39.09303 | 15166 ft | 316 kts | 269° |
| 2026-05-07 17:04 | 44.88667 | 39.06236 | 15170 ft | 313 kts | 262° |
| 2026-05-07 17:04 | 44.88441 | 39.03169 | 15169 ft | 312 kts | 261° |
| 2026-05-07 17:05 | 44.88170 | 39.00053 | 15168 ft | 312 kts | 260° |
| 2026-05-07 17:05 | 44.87613 | 38.96964 | 15170 ft | 332 kts | 248° |
| 2026-05-07 17:05 | 44.86464 | 38.93976 | 15165 ft | 359 kts | 234° |
| 2026-05-07 17:05 | 44.84824 | 38.91248 | 15166 ft | 372 kts | 228° |
| 2026-05-07 17:06 | 44.83057 | 38.88573 | 15166 ft | 375 kts | 227° |
| 2026-05-07 17:06 | 44.81268 | 38.85891 | 15167 ft | 377 kts | 227° |
| 2026-05-07 17:06 | 44.79462 | 38.83228 | 15163 ft | 377 kts | 223° |
| 2026-05-07 17:06 | 44.77352 | 38.81047 | 15163 ft | 379 kts | 210° |
| 2026-05-07 17:07 | 44.74926 | 38.79631 | 15164 ft | 381 kts | 197° |
| 2026-05-07 17:07 | 44.72324 | 38.78914 | 15170 ft | 382 kts | 190° |
| 2026-05-07 17:07 | 44.69682 | 38.78369 | 15169 ft | 382 kts | 189° |
| 2026-05-07 17:07 | 44.67094 | 38.77858 | 15169 ft | 382 kts | 189° |
| 2026-05-07 17:08 | 44.64462 | 38.77330 | 15169 ft | 382 kts | 189° |
| 2026-05-07 17:08 | 44.61844 | 38.76796 | 15169 ft | 382 kts | 189° |
| 2026-05-07 17:08 | 44.59223 | 38.76255 | 15169 ft | 382 kts | 190° |
| 2026-05-07 17:08 | 44.56586 | 38.75706 | 15169 ft | 382 kts | 190° |
| 2026-05-07 17:09 | 44.53982 | 38.75163 | 15169 ft | 382 kts | 190° |
| 2026-05-07 17:09 | 44.51363 | 38.74615 | 15169 ft | 382 kts | 190° |
| 2026-05-07 17:09 | 44.48721 | 38.74063 | 15169 ft | 382 kts | 190° |
| 2026-05-07 17:09 | 44.46086 | 38.73512 | 15169 ft | 382 kts | 190° |
| 2026-05-07 17:10 | 44.43464 | 38.72965 | 15169 ft | 382 kts | 190° |
| 2026-05-07 17:10 | 44.40837 | 38.72417 | 15169 ft | 382 kts | 190° |
| 2026-05-07 17:10 | 44.38239 | 38.71875 | 15169 ft | 382 kts | 190° |
| 2026-05-07 17:10 | 44.35621 | 38.71348 | 15167 ft | 382 kts | 187° |
| 2026-05-07 17:11 | 44.32964 | 38.71518 | 15160 ft | 386 kts | 169° |
| 2026-05-07 17:11 | 44.30464 | 38.72875 | 15161 ft | 389 kts | 150° |
| 2026-05-07 17:11 | 44.28391 | 38.75291 | 15161 ft | 392 kts | 132° |
| 2026-05-07 17:11 | 44.26723 | 38.78318 | 15171 ft | 393 kts | 127° |
| 2026-05-07 17:12 | 44.25129 | 38.81421 | 15170 ft | 393 kts | 127° |
| 2026-05-07 17:12 | 44.23549 | 38.84498 | 15169 ft | 393 kts | 127° |
| 2026-05-07 17:12 | 44.21959 | 38.87557 | 15169 ft | 393 kts | 127° |
| 2026-05-07 17:12 | 44.20346 | 38.90626 | 15169 ft | 393 kts | 128° |
| 2026-05-07 17:13 | 44.18727 | 38.93684 | 15169 ft | 392 kts | 128° |
| 2026-05-07 17:13 | 44.17103 | 38.96740 | 15169 ft | 391 kts | 128° |
| 2026-05-07 17:13 | 44.15419 | 38.99714 | 15160 ft | 389 kts | 136° |
| 2026-05-07 17:13 | 44.13329 | 39.02044 | 15166 ft | 383 kts | 152° |
| 2026-05-07 17:14 | 44.10935 | 39.03487 | 15169 ft | 378 kts | 167° |
| 2026-05-07 17:14 | 44.08379 | 39.04275 | 15175 ft | 377 kts | 171° |
| 2026-05-07 17:14 | 44.05815 | 39.04946 | 15175 ft | 376 kts | 171° |
| 2026-05-07 17:14 | 44.03263 | 39.05607 | 15177 ft | 375 kts | 171° |
| 2026-05-07 17:15 | 44.00695 | 39.06284 | 15179 ft | 375 kts | 171° |
| 2026-05-07 17:15 | 43.98136 | 39.06970 | 15182 ft | 374 kts | 171° |
| 2026-05-07 17:15 | 43.95608 | 39.07655 | 15185 ft | 374 kts | 171° |
| 2026-05-07 17:15 | 43.93057 | 39.08350 | 15188 ft | 373 kts | 171° |
| 2026-05-07 17:16 | 43.90501 | 39.09049 | 15190 ft | 373 kts | 171° |
| 2026-05-07 17:16 | 43.87974 | 39.09741 | 15192 ft | 372 kts | 171° |
| 2026-05-07 17:16 | 43.85437 | 39.10434 | 15194 ft | 372 kts | 171° |
| 2026-05-07 17:16 | 43.82915 | 39.11122 | 15195 ft | 371 kts | 171° |
| 2026-05-07 17:17 | 43.80387 | 39.11814 | 15195 ft | 371 kts | 171° |
| 2026-05-07 17:17 | 43.77871 | 39.12503 | 15195 ft | 371 kts | 171° |
| 2026-05-07 17:17 | 43.75332 | 39.13199 | 15055 ft | 371 kts | 171° |
| 2026-05-07 17:17 | 43.72833 | 39.13884 | 14808 ft | 369 kts | 170° |
| 2026-05-07 17:18 | 43.70324 | 39.14572 | 14565 ft | 368 kts | 170° |
| 2026-05-07 17:18 | 43.67812 | 39.15259 | 14329 ft | 367 kts | 170° |
| 2026-05-07 17:18 | 43.65335 | 39.15935 | 14066 ft | 366 kts | 170° |
| 2026-05-07 17:18 | 43.62821 | 39.16619 | 13713 ft | 364 kts | 170° |
| 2026-05-07 17:19 | 43.60350 | 39.17239 | 13329 ft | 362 kts | 172° |
| 2026-05-07 17:19 | 43.57898 | 39.17646 | 12933 ft | 359 kts | 175° |
| 2026-05-07 17:19 | 43.55409 | 39.17965 | 12524 ft | 356 kts | 175° |
| 2026-05-07 17:19 | 43.52962 | 39.18277 | 12118 ft | 353 kts | 175° |
| 2026-05-07 17:20 | 43.50523 | 39.18588 | 11794 ft | 347 kts | 175° |
| 2026-05-07 17:20 | 43.48203 | 39.18886 | 11683 ft | 334 kts | 175° |
| 2026-05-07 17:20 | 43.45918 | 39.19180 | 11572 ft | 321 kts | 175° |
| 2026-05-07 17:20 | 43.43769 | 39.19455 | 11472 ft | 309 kts | 175° |
| 2026-05-07 17:21 | 43.41668 | 39.19722 | 11381 ft | 297 kts | 175° |
| 2026-05-07 17:21 | 43.39637 | 39.19980 | 11302 ft | 285 kts | 175° |
| 2026-05-07 17:21 | 43.37721 | 39.20222 | 11234 ft | 275 kts | 175° |
| 2026-05-07 17:21 | 43.35833 | 39.20554 | 10960 ft | 275 kts | 171° |
| 2026-05-07 17:22 | 43.33971 | 39.21154 | 10610 ft | 276 kts | 165° |
| 2026-05-07 17:22 | 43.32143 | 39.21938 | 10268 ft | 276 kts | 163° |
| 2026-05-07 17:22 | 43.30326 | 39.22749 | 9954 ft | 275 kts | 163° |
| 2026-05-07 17:22 | 43.28517 | 39.23559 | 9653 ft | 274 kts | 163° |
| 2026-05-07 17:23 | 43.26712 | 39.24363 | 9356 ft | 272 kts | 163° |
| 2026-05-07 17:23 | 43.24924 | 39.25154 | 9063 ft | 271 kts | 163° |
| 2026-05-07 17:23 | 43.23135 | 39.25943 | 8771 ft | 270 kts | 163° |
| 2026-05-07 17:23 | 43.21349 | 39.26729 | 8480 ft | 268 kts | 163° |
| 2026-05-07 17:24 | 43.19573 | 39.27510 | 8192 ft | 267 kts | 163° |
| 2026-05-07 17:24 | 43.17839 | 39.28347 | 7903 ft | 267 kts | 153° |
| 2026-05-07 17:24 | 43.16435 | 39.29982 | 7624 ft | 268 kts | 125° |
| 2026-05-07 17:24 | 43.15751 | 39.32325 | 7354 ft | 269 kts | 97° |
| 2026-05-07 17:25 | 43.15922 | 39.34855 | 7095 ft | 268 kts | 74° |
| 2026-05-07 17:25 | 43.16492 | 39.37262 | 6862 ft | 266 kts | 71° |
| 2026-05-07 17:25 | 43.17097 | 39.39646 | 6618 ft | 265 kts | 71° |
| 2026-05-07 17:25 | 43.17688 | 39.42025 | 6377 ft | 263 kts | 71° |
| 2026-05-07 17:26 | 43.18261 | 39.44395 | 6138 ft | 262 kts | 71° |
| 2026-05-07 17:26 | 43.18825 | 39.46777 | 5898 ft | 261 kts | 72° |
| 2026-05-07 17:26 | 43.19379 | 39.49133 | 5682 ft | 258 kts | 72° |
| 2026-05-07 17:26 | 43.19922 | 39.51454 | 5496 ft | 253 kts | 72° |
| 2026-05-07 17:27 | 43.20447 | 39.53710 | 5301 ft | 249 kts | 72° |
| 2026-05-07 17:27 | 43.20980 | 39.55998 | 5014 ft | 252 kts | 72° |
| 2026-05-07 17:27 | 43.21508 | 39.58270 | 4788 ft | 251 kts | 72° |
| 2026-05-07 17:27 | 43.22041 | 39.60564 | 4532 ft | 252 kts | 72° |
| 2026-05-07 17:28 | 43.22571 | 39.62849 | 4292 ft | 252 kts | 72° |
| 2026-05-07 17:28 | 43.23105 | 39.65149 | 4056 ft | 252 kts | 72° |
| 2026-05-07 17:28 | 43.23627 | 39.67411 | 3826 ft | 252 kts | 72° |
| 2026-05-07 17:28 | 43.24158 | 39.69713 | 3594 ft | 251 kts | 72° |
| 2026-05-07 17:29 | 43.24678 | 39.71972 | 3468 ft | 244 kts | 72° |
| 2026-05-07 17:29 | 43.25169 | 39.74105 | 3460 ft | 219 kts | 72° |
| 2026-05-07 17:29 | 43.25602 | 39.75984 | 3432 ft | 196 kts | 72° |
| 2026-05-07 17:29 | 43.25991 | 39.77672 | 3385 ft | 176 kts | 72° |
| 2026-05-07 17:30 | 43.26339 | 39.79180 | 3348 ft | 157 kts | 72° |
| 2026-05-07 17:30 | 43.26660 | 39.80576 | 3273 ft | 149 kts | 72° |
| 2026-05-07 17:30 | 43.27046 | 39.81869 | 2919 ft | 149 kts | 54° |
| 2026-05-07 17:30 | 43.27799 | 39.82824 | 2516 ft | 148 kts | 30° |
| 2026-05-07 17:31 | 43.28683 | 39.83509 | 2155 ft | 147 kts | 27° |
| 2026-05-07 17:31 | 43.29580 | 39.84154 | 2004 ft | 145 kts | 26° |
| 2026-05-07 17:31 | 43.30476 | 39.84799 | 2006 ft | 146 kts | 27° |
| 2026-05-07 17:31 | 43.31383 | 39.85450 | 2002 ft | 146 kts | 26° |
| 2026-05-07 17:32 | 43.32293 | 39.86101 | 2000 ft | 146 kts | 26° |
| 2026-05-07 17:32 | 43.33183 | 39.86752 | 1999 ft | 147 kts | 27° |
| 2026-05-07 17:32 | 43.34089 | 39.87426 | 1998 ft | 147 kts | 27° |
| 2026-05-07 17:32 | 43.34974 | 39.88090 | 1915 ft | 147 kts | 27° |
| 2026-05-07 17:33 | 43.35864 | 39.88761 | 1810 ft | 146 kts | 27° |
| 2026-05-07 17:33 | 43.36760 | 39.89463 | 1624 ft | 146 kts | 29° |
| 2026-05-07 17:33 | 43.37627 | 39.90171 | 1328 ft | 146 kts | 30° |
| 2026-05-07 17:33 | 43.38491 | 39.90878 | 1049 ft | 143 kts | 28° |
| 2026-05-07 17:34 | 43.39374 | 39.91513 | 932 ft | 144 kts | 27° |
| 2026-05-07 17:34 | 43.40259 | 39.92152 | 787 ft | 144 kts | 26° |
| 2026-05-07 17:34 | 43.41134 | 39.92793 | 584 ft | 143 kts | 27° |
| 2026-05-07 17:34 | 43.42010 | 39.93425 | 424 ft | 143 kts | 27° |
| 2026-05-07 17:35 | 43.42891 | 39.94048 | 212 ft | 142 kts | 27° |
| 2026-05-07 17:35 | 43.43751 | 39.94697 | 59 ft | 138 kts | 27° |
| 2026-05-07 17:36 | 43.45139 | 39.95727 | 75 ft | 39 kts | 28° |
| 2026-05-07 17:36 | 43.45259 | 39.95775 | 78 ft | 1 kts | 272° |
| 2026-05-07 17:36 | 43.45259 | 39.95779 | 78 ft | 0 kts | 218° |
| 2026-05-07 17:36 | 43.45257 | 39.95777 | 78 ft | 0 kts | 226° |
| 2026-05-07 17:37 | 43.45255 | 39.95768 | 78 ft | 2 kts | 249° |
| 2026-05-07 17:37 | 43.45250 | 39.95744 | 78 ft | 3 kts | 256° |
| 2026-05-07 17:37 | 43.45245 | 39.95712 | 77 ft | 3 kts | 256° |
| 2026-05-07 17:37 | 43.45227 | 39.95655 | 77 ft | 9 kts | 238° |
| 2026-05-07 17:38 | 43.45156 | 39.95565 | 76 ft | 15 kts | 215° |
| 2026-05-07 17:38 | 43.45067 | 39.95462 | 73 ft | 18 kts | 236° |
| 2026-05-07 17:38 | 43.45000 | 39.95286 | 68 ft | 22 kts | 245° |
| 2026-05-07 17:38 | 43.44930 | 39.95078 | 66 ft | 24 kts | 245° |
| 2026-05-07 17:39 | 43.44866 | 39.94895 | 63 ft | 18 kts | 244° |
| 2026-05-07 17:39 | 43.44812 | 39.94743 | 61 ft | 17 kts | 244° |
| 2026-05-07 17:39 | 43.44786 | 39.94665 | 60 ft | 9 kts | 245° |
| 2026-05-07 17:39 | 43.44759 | 39.94588 | 61 ft | 8 kts | 245° |
| 2026-05-07 17:40 | 43.44731 | 39.94504 | 61 ft | 10 kts | 245° |
| 2026-05-07 17:40 | 43.44696 | 39.94401 | 60 ft | 12 kts | 244° |
| 2026-05-07 17:40 | 43.44660 | 39.94296 | 59 ft | 12 kts | 245° |
| 2026-05-07 17:40 | 43.44617 | 39.94171 | 55 ft | 14 kts | 244° |
| 2026-05-07 17:41 | 43.44595 | 39.94065 | 55 ft | 3 kts | 301° |
| 2026-05-07 17:41 | 43.44607 | 39.94038 | 55 ft | 3 kts | 305° |
| 2026-05-07 17:41 | 43.44626 | 39.94009 | 55 ft | 4 kts | 319° |
| 2026-05-07 17:41 | 43.44648 | 39.93988 | 56 ft | 1 kts | 330° |
| 2026-05-07 17:42 | 43.44657 | 39.93981 | 56 ft | 1 kts | 329° |
| 2026-05-07 17:42 | 43.44665 | 39.93975 | 56 ft | 0 kts | 332° |